sensor_id;sensor_type;location;lat;lon;timestamp;pressure;altitude;pressure_sealevel;temperature;humidity
62354;BME280;48391;49.184;2.418;2023-07-02T00:00:15;100876.09;;;17.09;100.00
62354;BME280;48391;49.184;2.418;2023-07-02T00:02:41;100877.41;;;17.13;100.00
62354;BME280;48391;49.184;2.418;2023-07-02T00:05:07;100875.78;;;17.04;100.00
62354;BME280;48391;49.184;2.418;2023-07-02T00:07:34;100880.81;;;17.07;100.00
62354;BME280;48391;49.184;2.418;2023-07-02T00:10:02;100877.84;;;17.02;100.00
62354;BME280;48391;49.184;2.418;2023-07-02T00:12:28;100884.03;;;17.03;100.00
62354;BME280;48391;49.184;2.418;2023-07-02T00:14:54;100882.59;;;16.92;100.00
62354;BME280;48391;49.184;2.418;2023-07-02T00:17:21;100873.22;;;16.88;100.00
62354;BME280;48391;49.184;2.418;2023-07-02T00:19:47;100867.16;;;16.86;100.00
62354;BME280;48391;49.184;2.418;2023-07-02T00:22:17;100870.81;;;16.93;100.00
62354;BME280;48391;49.184;2.418;2023-07-02T00:24:46;100875.19;;;16.94;100.00
62354;BME280;48391;49.184;2.418;2023-07-02T00:27:16;100873.75;;;17.06;100.00
62354;BME280;48391;49.184;2.418;2023-07-02T00:29:45;100870.94;;;17.00;100.00
62354;BME280;48391;49.184;2.418;2023-07-02T00:32:11;100871.13;;;16.98;100.00
62354;BME280;48391;49.184;2.418;2023-07-02T00:34:37;100867.00;;;17.10;100.00
62354;BME280;48391;49.184;2.418;2023-07-02T00:37:03;100863.91;;;16.91;100.00
62354;BME280;48391;49.184;2.418;2023-07-02T00:39:29;100864.94;;;16.90;100.00
62354;BME280;48391;49.184;2.418;2023-07-02T00:42:01;100873.63;;;17.00;100.00
62354;BME280;48391;49.184;2.418;2023-07-02T00:44:28;100866.97;;;16.88;100.00
62354;BME280;48391;49.184;2.418;2023-07-02T00:46:55;100867.97;;;16.87;100.00
62354;BME280;48391;49.184;2.418;2023-07-02T00:49:21;100880.34;;;16.73;100.00
62354;BME280;48391;49.184;2.418;2023-07-02T00:51:48;100869.19;;;16.84;100.00
62354;BME280;48391;49.184;2.418;2023-07-02T00:54:14;100880.13;;;16.83;100.00
62354;BME280;48391;49.184;2.418;2023-07-02T00:56:40;100876.47;;;16.76;100.00
62354;BME280;48391;49.184;2.418;2023-07-02T00:59:06;100873.69;;;16.61;100.00
62354;BME280;48391;49.184;2.418;2023-07-02T01:01:33;100870.69;;;16.56;100.00
62354;BME280;48391;49.184;2.418;2023-07-02T01:04:06;100869.84;;;16.56;100.00
62354;BME280;48391;49.184;2.418;2023-07-02T01:06:35;100873.25;;;16.50;100.00
62354;BME280;48391;49.184;2.418;2023-07-02T01:09:04;100879.97;;;16.46;100.00
62354;BME280;48391;49.184;2.418;2023-07-02T01:11:39;100883.16;;;16.41;100.00
62354;BME280;48391;49.184;2.418;2023-07-02T01:14:16;100878.97;;;16.47;100.00
62354;BME280;48391;49.184;2.418;2023-07-02T01:16:43;100875.28;;;16.40;100.00
62354;BME280;48391;49.184;2.418;2023-07-02T01:20:05;100881.84;;;16.37;100.00
62354;BME280;48391;49.184;2.418;2023-07-02T01:22:09;100882.19;;;16.34;100.00
62354;BME280;48391;49.184;2.418;2023-07-02T01:24:42;100882.53;;;16.31;100.00
62354;BME280;48391;49.184;2.418;2023-07-02T01:27:13;100882.38;;;16.33;100.00
62354;BME280;48391;49.184;2.418;2023-07-02T01:29:41;100882.75;;;16.21;100.00
62354;BME280;48391;49.184;2.418;2023-07-02T01:32:08;100885.25;;;16.23;100.00
62354;BME280;48391;49.184;2.418;2023-07-02T01:34:34;100887.81;;;16.16;100.00
62354;BME280;48391;49.184;2.418;2023-07-02T01:37:02;100884.44;;;16.22;100.00
62354;BME280;48391;49.184;2.418;2023-07-02T01:39:28;100886.31;;;16.14;100.00
62354;BME280;48391;49.184;2.418;2023-07-02T01:42:10;100894.66;;;16.19;100.00
62354;BME280;48391;49.184;2.418;2023-07-02T01:44:37;100898.56;;;16.16;100.00
62354;BME280;48391;49.184;2.418;2023-07-02T01:47:03;100889.50;;;16.09;100.00
62354;BME280;48391;49.184;2.418;2023-07-02T01:49:30;100898.59;;;16.08;100.00
62354;BME280;48391;49.184;2.418;2023-07-02T01:51:57;100893.19;;;16.16;100.00
62354;BME280;48391;49.184;2.418;2023-07-02T01:54:25;100899.09;;;16.04;100.00
62354;BME280;48391;49.184;2.418;2023-07-02T01:56:57;100895.34;;;16.13;100.00
62354;BME280;48391;49.184;2.418;2023-07-02T01:59:24;100898.25;;;16.03;100.00
62354;BME280;48391;49.184;2.418;2023-07-02T02:01:50;100893.91;;;16.02;100.00
62354;BME280;48391;49.184;2.418;2023-07-02T02:04:17;100902.81;;;15.95;100.00
62354;BME280;48391;49.184;2.418;2023-07-02T02:06:46;100904.19;;;15.91;100.00
62354;BME280;48391;49.184;2.418;2023-07-02T02:09:12;100893.25;;;15.92;100.00
62354;BME280;48391;49.184;2.418;2023-07-02T02:11:44;100899.13;;;15.88;100.00
62354;BME280;48391;49.184;2.418;2023-07-02T02:14:10;100901.63;;;15.97;100.00
62354;BME280;48391;49.184;2.418;2023-07-02T02:16:36;100896.78;;;15.85;100.00
62354;BME280;48391;49.184;2.418;2023-07-02T02:19:03;100900.16;;;15.87;100.00
62354;BME280;48391;49.184;2.418;2023-07-02T02:21:29;100902.47;;;15.90;100.00
62354;BME280;48391;49.184;2.418;2023-07-02T02:23:56;100906.19;;;15.81;100.00
62354;BME280;48391;49.184;2.418;2023-07-02T02:26:23;100904.50;;;15.80;100.00
62354;BME280;48391;49.184;2.418;2023-07-02T02:28:51;100912.41;;;15.65;100.00
62354;BME280;48391;49.184;2.418;2023-07-02T02:31:17;100917.94;;;15.72;100.00
62354;BME280;48391;49.184;2.418;2023-07-02T02:33:46;100917.28;;;15.70;100.00
62354;BME280;48391;49.184;2.418;2023-07-02T02:36:14;100911.22;;;15.76;100.00
62354;BME280;48391;49.184;2.418;2023-07-02T04:28:44;100971.91;;;15.12;100.00
62354;BME280;48391;49.184;2.418;2023-07-02T04:31:10;100974.41;;;15.06;100.00
62354;BME280;48391;49.184;2.418;2023-07-02T04:33:36;100978.28;;;15.19;100.00
62354;BME280;48391;49.184;2.418;2023-07-02T04:36:03;100980.19;;;15.27;100.00
62354;BME280;48391;49.184;2.418;2023-07-02T04:38:29;100980.72;;;15.47;100.00
62354;BME280;48391;49.184;2.418;2023-07-02T04:40:56;100977.03;;;15.56;100.00
62354;BME280;48391;49.184;2.418;2023-07-02T04:43:31;100973.69;;;15.70;100.00
62354;BME280;48391;49.184;2.418;2023-07-02T04:45:57;100987.78;;;15.72;100.00
62354;BME280;48391;49.184;2.418;2023-07-02T04:48:24;100979.72;;;15.80;100.00
62354;BME280;48391;49.184;2.418;2023-07-02T04:50:50;100982.78;;;15.85;100.00
62354;BME280;48391;49.184;2.418;2023-07-02T04:53:16;100985.47;;;15.85;100.00
62354;BME280;48391;49.184;2.418;2023-07-02T04:55:43;100985.44;;;16.01;100.00
62354;BME280;48391;49.184;2.418;2023-07-02T04:58:10;100988.81;;;16.03;100.00
62354;BME280;48391;49.184;2.418;2023-07-02T05:00:36;100984.94;;;15.97;100.00
62354;BME280;48391;49.184;2.418;2023-07-02T05:03:02;100995.19;;;16.02;100.00
62354;BME280;48391;49.184;2.418;2023-07-02T05:05:28;100985.06;;;16.20;100.00
62354;BME280;48391;49.184;2.418;2023-07-02T05:07:55;100981.91;;;16.16;100.00
62354;BME280;48391;49.184;2.418;2023-07-02T05:10:21;100985.50;;;16.48;100.00
62354;BME280;48391;49.184;2.418;2023-07-02T05:12:47;100978.63;;;16.37;100.00
62354;BME280;48391;49.184;2.418;2023-07-02T05:15:14;100980.16;;;16.32;100.00
62354;BME280;48391;49.184;2.418;2023-07-02T05:17:40;100982.34;;;16.52;100.00
62354;BME280;48391;49.184;2.418;2023-07-02T05:20:07;100983.66;;;16.64;100.00
62354;BME280;48391;49.184;2.418;2023-07-02T05:22:33;100978.94;;;16.66;100.00
62354;BME280;48391;49.184;2.418;2023-07-02T05:24:59;100989.84;;;16.73;100.00
62354;BME280;48391;49.184;2.418;2023-07-02T05:27:25;100990.59;;;16.89;100.00
62354;BME280;48391;49.184;2.418;2023-07-02T05:29:52;100987.63;;;16.76;100.00
62354;BME280;48391;49.184;2.418;2023-07-02T05:32:18;100991.31;;;16.75;100.00
62354;BME280;48391;49.184;2.418;2023-07-02T05:34:44;100988.94;;;16.88;100.00
62354;BME280;48391;49.184;2.418;2023-07-02T05:37:10;100986.47;;;17.09;100.00
62354;BME280;48391;49.184;2.418;2023-07-02T05:39:36;100992.91;;;17.00;100.00
62354;BME280;48391;49.184;2.418;2023-07-02T05:42:03;100991.78;;;16.87;100.00
62354;BME280;48391;49.184;2.418;2023-07-02T05:44:29;100998.63;;;16.97;100.00
62354;BME280;48391;49.184;2.418;2023-07-02T05:46:56;101000.66;;;16.95;100.00
62354;BME280;48391;49.184;2.418;2023-07-02T05:49:22;101006.66;;;17.05;100.00
62354;BME280;48391;49.184;2.418;2023-07-02T05:51:48;101010.72;;;17.01;100.00
62354;BME280;48391;49.184;2.418;2023-07-02T05:54:14;101010.22;;;17.06;100.00
62354;BME280;48391;49.184;2.418;2023-07-02T05:56:40;101013.88;;;17.13;100.00
62354;BME280;48391;49.184;2.418;2023-07-02T05:59:07;101007.56;;;17.29;100.00
62354;BME280;48391;49.184;2.418;2023-07-02T06:01:33;101016.91;;;17.41;100.00
62354;BME280;48391;49.184;2.418;2023-07-02T06:03:59;101015.25;;;17.40;100.00
62354;BME280;48391;49.184;2.418;2023-07-02T06:06:25;101008.94;;;17.25;100.00
62354;BME280;48391;49.184;2.418;2023-07-02T06:08:52;101015.06;;;17.41;100.00
62354;BME280;48391;49.184;2.418;2023-07-02T06:11:18;101017.22;;;17.46;100.00
62354;BME280;48391;49.184;2.418;2023-07-02T06:13:44;101020.66;;;17.32;100.00
62354;BME280;48391;49.184;2.418;2023-07-02T06:16:10;101027.03;;;17.08;100.00
62354;BME280;48391;49.184;2.418;2023-07-02T06:18:37;101024.28;;;17.16;100.00
62354;BME280;48391;49.184;2.418;2023-07-02T06:21:03;101030.34;;;17.49;100.00
62354;BME280;48391;49.184;2.418;2023-07-02T06:23:38;101030.13;;;17.58;100.00
62354;BME280;48391;49.184;2.418;2023-07-02T06:26:05;101034.31;;;17.83;100.00
62354;BME280;48391;49.184;2.418;2023-07-02T06:28:31;101036.28;;;17.67;100.00
62354;BME280;48391;49.184;2.418;2023-07-02T06:30:57;101039.84;;;17.67;100.00
62354;BME280;48391;49.184;2.418;2023-07-02T06:33:23;101043.94;;;17.55;100.00
62354;BME280;48391;49.184;2.418;2023-07-02T06:35:49;101051.94;;;17.71;100.00
62354;BME280;48391;49.184;2.418;2023-07-02T06:38:16;101054.03;;;17.84;100.00
62354;BME280;48391;49.184;2.418;2023-07-02T06:40:42;101048.66;;;17.84;100.00
62354;BME280;48391;49.184;2.418;2023-07-02T06:43:09;101056.16;;;17.97;100.00
62354;BME280;48391;49.184;2.418;2023-07-02T06:45:35;101059.06;;;18.10;100.00
62354;BME280;48391;49.184;2.418;2023-07-02T06:48:01;101062.38;;;18.34;100.00
62354;BME280;48391;49.184;2.418;2023-07-02T06:50:28;101063.03;;;18.36;100.00
62354;BME280;48391;49.184;2.418;2023-07-02T06:52:54;101065.88;;;18.57;100.00
62354;BME280;48391;49.184;2.418;2023-07-02T06:55:20;101063.84;;;18.59;100.00
62354;BME280;48391;49.184;2.418;2023-07-02T06:57:47;101056.50;;;18.68;100.00
62354;BME280;48391;49.184;2.418;2023-07-02T07:00:14;101053.78;;;18.83;100.00
62354;BME280;48391;49.184;2.418;2023-07-02T07:02:40;101059.56;;;18.65;100.00
62354;BME280;48391;49.184;2.418;2023-07-02T07:05:07;101057.81;;;19.01;100.00
62354;BME280;48391;49.184;2.418;2023-07-02T07:07:34;101063.28;;;18.78;100.00
62354;BME280;48391;49.184;2.418;2023-07-02T07:10:00;101054.94;;;18.88;100.00
62354;BME280;48391;49.184;2.418;2023-07-02T07:12:26;101056.88;;;18.94;100.00
62354;BME280;48391;49.184;2.418;2023-07-02T07:14:52;101061.00;;;18.90;100.00
62354;BME280;48391;49.184;2.418;2023-07-02T07:17:18;101054.81;;;19.11;100.00
62354;BME280;48391;49.184;2.418;2023-07-02T07:19:44;101063.56;;;19.27;100.00
62354;BME280;48391;49.184;2.418;2023-07-02T07:22:10;101060.78;;;19.06;100.00
62354;BME280;48391;49.184;2.418;2023-07-02T07:24:37;101057.50;;;19.76;100.00
62354;BME280;48391;49.184;2.418;2023-07-02T07:27:03;101065.81;;;19.74;100.00
62354;BME280;48391;49.184;2.418;2023-07-02T07:29:29;101067.34;;;19.62;100.00
62354;BME280;48391;49.184;2.418;2023-07-02T07:31:55;101061.84;;;19.77;100.00
62354;BME280;48391;49.184;2.418;2023-07-02T07:34:21;101068.03;;;19.71;100.00
62354;BME280;48391;49.184;2.418;2023-07-02T07:36:48;101072.28;;;20.01;100.00
62354;BME280;48391;49.184;2.418;2023-07-02T07:39:14;101074.97;;;19.94;100.00
62354;BME280;48391;49.184;2.418;2023-07-02T07:41:40;101078.41;;;19.67;100.00
62354;BME280;48391;49.184;2.418;2023-07-02T07:44:06;101074.97;;;19.58;100.00
62354;BME280;48391;49.184;2.418;2023-07-02T07:46:32;101072.75;;;19.62;100.00
62354;BME280;48391;49.184;2.418;2023-07-02T07:48:58;101067.47;;;19.96;100.00
62354;BME280;48391;49.184;2.418;2023-07-02T07:51:25;101068.78;;;20.21;100.00
62354;BME280;48391;49.184;2.418;2023-07-02T07:53:51;101065.59;;;20.67;nan
62354;BME280;48391;49.184;2.418;2023-07-02T07:56:35;101078.00;;;20.55;100.00
62354;BME280;48391;49.184;2.418;2023-07-02T07:59:01;101073.03;;;20.92;100.00
62354;BME280;48391;49.184;2.418;2023-07-02T08:01:27;101068.50;;;20.99;100.00
62354;BME280;48391;49.184;2.418;2023-07-02T08:03:54;61489.81;;;-142.61;100.00
62354;BME280;48391;49.184;2.418;2023-07-02T08:06:20;101071.13;;;21.14;nan
62354;BME280;48391;49.184;2.418;2023-07-02T08:08:46;61489.81;;;-142.61;100.00
62354;BME280;48391;49.184;2.418;2023-07-02T08:11:13;101076.19;;;20.62;nan
62354;BME280;48391;49.184;2.418;2023-07-02T08:14:35;101069.88;;;20.27;nan
62354;BME280;48391;49.184;2.418;2023-07-02T08:17:36;61489.81;;;-142.61;100.00
62354;BME280;48391;49.184;2.418;2023-07-02T08:20:03;61489.81;;;-142.61;100.00
62354;BME280;48391;49.184;2.418;2023-07-02T08:22:30;61489.81;;;-142.61;100.00
62354;BME280;48391;49.184;2.418;2023-07-02T08:24:56;101069.59;;;21.52;nan
